createdAt,value
2022-09-06T00:00:13.807Z,95328
2022-09-06T00:03:39.167Z,95324
2022-09-06T00:07:04.316Z,95334
2022-09-06T00:10:29.564Z,95334
2022-09-06T00:13:54.838Z,95340
2022-09-06T00:17:20.106Z,95339
2022-09-06T00:20:45.370Z,95333
2022-09-06T00:24:10.619Z,95332
2022-09-06T00:27:35.900Z,95328
2022-09-06T00:31:01.195Z,95334
2022-09-06T00:34:26.405Z,95338
2022-09-06T00:37:51.696Z,95333
2022-09-06T00:41:16.974Z,95350
2022-09-06T00:44:42.260Z,95352
2022-09-06T00:48:07.520Z,95349
2022-09-06T00:51:32.771Z,95347
2022-09-06T00:54:58.033Z,95349
2022-09-06T00:58:23.321Z,95346
2022-09-06T01:01:48.668Z,95342
2022-09-06T01:05:13.772Z,95342
2022-09-06T01:08:39.040Z,95340
2022-09-06T01:12:04.300Z,95339
2022-09-06T01:15:29.604Z,95339
2022-09-06T01:18:54.807Z,95340
2022-09-06T01:22:20.083Z,95344
2022-09-06T01:25:45.326Z,95341
2022-09-06T01:29:10.585Z,95340
2022-09-06T01:32:35.834Z,95343
2022-09-06T01:36:01.066Z,95339
2022-09-06T01:39:26.348Z,95337
2022-09-06T01:42:51.607Z,95341
2022-09-06T01:46:16.920Z,95326
2022-09-06T01:49:42.108Z,95324
2022-09-06T01:53:07.359Z,95324
2022-09-06T01:56:32.590Z,95325
2022-09-06T01:59:57.860Z,95333
2022-09-06T02:03:23.113Z,95329
2022-09-06T02:06:48.362Z,95321
2022-09-06T02:10:13.592Z,95318
2022-09-06T02:13:38.876Z,95318
2022-09-06T02:17:04.285Z,95317
2022-09-06T02:20:41.714Z,95315
2022-09-06T02:24:06.928Z,95314
2022-09-06T02:27:32.197Z,95319
2022-09-06T02:30:57.498Z,95320
2022-09-06T02:34:22.672Z,95314
2022-09-06T02:37:47.948Z,95307
2022-09-06T02:41:13.191Z,95306
2022-09-06T02:44:38.429Z,95303
2022-09-06T02:48:03.704Z,95304
2022-09-06T02:51:28.962Z,95311
2022-09-06T02:54:54.248Z,95307
2022-09-06T02:58:19.523Z,95297
2022-09-06T03:01:44.918Z,95292
2022-09-06T03:05:10.059Z,95284
2022-09-06T03:08:35.302Z,95284
2022-09-06T03:12:00.552Z,95280
2022-09-06T03:15:25.815Z,95275
2022-09-06T03:18:51.087Z,95281
2022-09-06T03:22:16.345Z,95285
2022-09-06T03:25:41.567Z,95272
2022-09-06T03:29:06.810Z,95280
2022-09-06T03:32:32.040Z,95283
2022-09-06T03:35:57.320Z,95276
2022-09-06T03:39:22.579Z,95280
2022-09-06T03:42:47.865Z,95271
2022-09-06T03:46:13.153Z,95267
2022-09-06T03:49:38.383Z,95263
2022-09-06T03:53:03.644Z,95261
2022-09-06T03:56:28.904Z,95266
2022-09-06T03:59:54.164Z,95265
2022-09-06T04:03:19.446Z,95267
2022-09-06T04:06:44.734Z,95261
2022-09-06T04:10:09.986Z,95265
2022-09-06T04:13:35.219Z,95271
2022-09-06T04:17:00.566Z,95271
2022-09-06T04:20:25.712Z,95276
2022-09-06T04:23:50.979Z,95266
2022-09-06T04:27:16.239Z,95257
2022-09-06T04:30:41.474Z,95255
2022-09-06T04:34:06.711Z,95254
2022-09-06T04:37:31.946Z,95255
2022-09-06T04:40:57.183Z,95256
2022-09-06T04:44:22.419Z,95256
2022-09-06T04:47:47.677Z,95258
2022-09-06T04:51:12.934Z,95260
2022-09-06T04:54:38.166Z,95260
2022-09-06T04:58:03.427Z,95259
2022-09-06T05:01:28.715Z,95262
2022-09-06T05:04:53.922Z,95265
2022-09-06T05:08:19.160Z,95263
2022-09-06T05:11:44.415Z,95255
2022-09-06T05:15:09.669Z,95249
2022-09-06T05:18:34.888Z,95250
2022-09-06T05:22:00.133Z,95248
2022-09-06T05:25:25.401Z,95238
2022-09-06T05:28:50.661Z,95243
2022-09-06T05:32:15.914Z,95242
2022-09-06T05:35:41.169Z,95250
2022-09-06T05:39:06.402Z,95249
2022-09-06T05:42:31.641Z,95251
2022-09-06T05:45:56.918Z,95247
2022-09-06T05:49:22.133Z,95247
2022-09-06T05:52:47.381Z,95242
2022-09-06T05:56:12.642Z,95249
2022-09-06T05:59:37.889Z,95254
2022-09-06T06:03:03.117Z,95251
2022-09-06T06:06:28.834Z,95250
2022-09-06T06:09:54.084Z,95247
2022-09-06T06:13:19.337Z,95254
2022-09-06T06:16:44.652Z,95251
2022-09-06T06:20:09.854Z,95241
2022-09-06T06:23:35.101Z,95240
2022-09-06T06:27:00.334Z,95243
2022-09-06T06:30:25.589Z,95238
2022-09-06T06:33:50.832Z,95238
2022-09-06T06:37:16.057Z,95231
2022-09-06T06:40:41.305Z,95239
2022-09-06T06:44:06.578Z,95240
2022-09-06T06:47:31.795Z,95240
2022-09-06T06:50:57.035Z,95245
2022-09-06T06:54:22.291Z,95242
2022-09-06T06:57:47.512Z,95245
2022-09-06T07:01:12.863Z,95246
2022-09-06T07:04:37.994Z,95247
2022-09-06T07:08:03.241Z,95242
2022-09-06T07:11:28.502Z,95244
2022-09-06T07:14:53.759Z,95241
2022-09-06T07:18:18.993Z,95241
2022-09-06T07:21:44.222Z,95254
2022-09-06T07:25:09.468Z,95263
2022-09-06T07:28:34.721Z,95273
2022-09-06T07:32:15.442Z,95267
2022-09-06T07:35:25.219Z,95262
2022-09-06T07:38:50.462Z,95260
2022-09-06T07:42:15.707Z,95258
2022-09-06T07:45:40.955Z,95259
2022-09-06T07:49:06.207Z,95257
2022-09-06T07:55:56.702Z,95250
2022-09-06T07:59:21.939Z,95241
2022-09-06T08:02:47.324Z,95226
2022-09-06T08:06:12.561Z,95226
2022-09-06T08:09:37.797Z,95223
2022-09-06T08:13:02.971Z,95224
2022-09-06T08:16:28.219Z,95230
2022-09-06T08:19:53.422Z,95228
2022-09-06T08:23:18.663Z,95228
2022-09-06T08:26:43.921Z,95230
2022-09-06T08:30:09.178Z,95225
2022-09-06T08:33:34.400Z,95227
2022-09-06T08:36:59.643Z,95230
2022-09-06T08:40:24.855Z,95230
2022-09-06T08:43:50.450Z,95232
2022-09-06T08:47:15.306Z,95232
2022-09-06T08:50:40.538Z,95236
2022-09-06T08:54:05.775Z,95229
2022-09-06T08:57:31.008Z,95223
2022-09-06T09:00:56.280Z,95221
2022-09-06T09:04:21.483Z,95225
2022-09-06T09:07:46.749Z,95219
2022-09-06T09:11:11.989Z,95219
2022-09-06T09:14:37.226Z,95222
2022-09-06T09:18:02.462Z,95219
2022-09-06T09:21:30.579Z,95218
2022-09-06T09:24:52.945Z,95212
2022-09-06T09:28:18.191Z,95203
2022-09-06T09:31:43.530Z,95211
2022-09-06T09:35:08.700Z,95211
2022-09-06T09:38:33.955Z,95223
2022-09-06T09:41:59.207Z,95222
2022-09-06T09:45:24.441Z,95224
2022-09-06T09:48:54.105Z,95234
2022-09-06T09:52:19.332Z,95231
2022-09-06T09:55:44.566Z,95229
2022-09-06T09:59:09.812Z,95232
2022-09-06T10:02:35.008Z,95231
2022-09-06T10:06:02.332Z,95237
2022-09-06T10:09:25.500Z,95231
2022-09-06T10:12:50.739Z,95225
2022-09-06T10:16:15.997Z,95231
2022-09-06T10:19:41.242Z,95241
2022-09-06T10:23:06.456Z,95240
2022-09-06T10:26:31.705Z,95238
2022-09-06T10:29:56.952Z,95234
2022-09-06T10:33:22.157Z,95223
2022-09-06T10:36:47.405Z,95227
2022-09-06T10:40:12.722Z,95213
2022-09-06T10:43:37.862Z,95213
2022-09-06T10:47:03.096Z,95215
2022-09-06T10:50:28.333Z,95210
2022-09-06T10:53:53.550Z,95213
2022-09-06T11:00:44.041Z,95214
2022-09-06T11:04:12.626Z,95217
2022-09-06T11:07:34.686Z,95217
2022-09-06T11:10:59.792Z,95220
2022-09-06T11:14:25.026Z,95219
2022-09-06T11:17:50.286Z,95228
2022-09-06T11:21:19.313Z,95222
2022-09-06T11:24:40.739Z,95221
2022-09-06T11:28:05.955Z,95225
2022-09-06T11:34:56.585Z,95224
2022-09-06T11:38:21.793Z,95218
2022-09-06T11:41:47.011Z,95214
2022-09-06T11:45:12.240Z,95208
2022-09-06T11:48:37.463Z,95213
2022-09-06T11:52:02.693Z,95209
2022-09-06T11:55:27.949Z,95207
2022-09-06T11:58:53.271Z,95211
2022-09-06T12:02:18.611Z,95212
2022-09-06T12:05:43.737Z,95210
2022-09-06T12:09:08.976Z,95203
2022-09-06T12:12:34.208Z,95197
2022-09-06T12:15:59.495Z,95193
2022-09-06T12:19:24.669Z,95189
2022-09-06T12:22:49.898Z,95190
2022-09-06T12:26:17.149Z,95190
2022-09-06T12:29:42.427Z,95184
2022-09-06T12:33:07.689Z,95177
2022-09-06T12:36:32.922Z,95172
2022-09-06T12:39:58.231Z,95172
2022-09-06T12:43:23.870Z,95172
2022-09-06T12:46:49.170Z,95171
2022-09-06T12:50:17.607Z,95168
2022-09-06T12:53:42.978Z,95164
2022-09-06T12:57:08.235Z,95156
2022-09-06T13:00:33.442Z,95152
2022-09-06T13:03:58.684Z,95148
2022-09-06T13:07:23.957Z,95146
2022-09-06T13:10:49.150Z,95145
2022-09-06T13:14:40.390Z,95138
2022-09-06T13:18:05.676Z,95131
2022-09-06T13:21:30.989Z,95127
2022-09-06T13:24:56.254Z,95124
2022-09-06T13:28:21.582Z,95114
2022-09-06T13:31:46.885Z,95111
2022-09-06T13:35:12.223Z,95109
2022-09-06T13:38:37.501Z,95109
2022-09-06T13:42:02.816Z,95102
2022-09-06T13:45:28.085Z,95098
2022-09-06T13:48:53.371Z,95099
2022-09-06T13:52:18.633Z,95098
2022-09-06T13:55:43.896Z,95095
2022-09-06T13:59:09.170Z,95092
2022-09-06T14:02:34.472Z,95090
2022-09-06T14:05:59.660Z,95092
2022-09-06T14:09:24.940Z,95092
2022-09-06T14:12:50.226Z,95091
2022-09-06T14:16:15.576Z,95094
2022-09-06T14:19:40.750Z,95093
2022-09-06T14:23:06.066Z,95090
2022-09-06T14:26:31.346Z,95093
2022-09-06T15:06:07.151Z,95079
2022-09-06T15:09:32.456Z,95078
2022-09-06T15:12:57.949Z,95068
2022-09-06T15:16:23.214Z,95063
2022-09-06T15:19:48.463Z,95066
2022-09-06T15:23:29.122Z,95057
2022-09-06T15:26:39.100Z,95059
2022-09-06T15:30:04.811Z,95058
2022-09-06T15:33:30.491Z,95052
2022-09-06T15:36:55.705Z,95049
2022-09-06T15:40:21.015Z,95045
2022-09-06T15:43:46.233Z,95041
2022-09-06T15:47:11.456Z,95035
2022-09-06T15:50:50.653Z,95035
2022-09-06T15:54:01.957Z,95030
2022-09-06T15:57:27.168Z,95028
2022-09-06T16:00:54.122Z,95030
2022-09-06T16:04:17.662Z,95023
2022-09-06T16:07:42.884Z,95026
2022-09-06T16:11:08.152Z,95023
2022-09-06T16:14:33.430Z,95018
2022-09-06T16:17:59.807Z,95022
2022-09-06T16:21:25.020Z,95020
2022-09-06T16:24:50.237Z,95022
2022-09-06T16:28:15.474Z,95019
2022-09-06T16:31:41.037Z,95018
2022-09-06T16:35:05.970Z,95014
2022-09-06T16:38:31.249Z,95010
2022-09-06T16:41:56.647Z,95010
2022-09-06T16:45:21.898Z,95012
2022-09-06T16:48:47.136Z,95009
2022-09-06T16:52:12.372Z,95004
2022-09-06T16:55:37.604Z,95005
2022-09-06T16:59:02.855Z,95005
2022-09-06T17:02:28.122Z,95005
2022-09-06T17:05:53.342Z,95005
2022-09-06T17:09:18.601Z,95009
2022-09-06T17:12:43.827Z,95009
2022-09-06T17:16:09.102Z,95003
2022-09-06T17:19:34.315Z,95011
2022-09-06T17:22:59.536Z,95006
2022-09-06T17:26:24.774Z,95003
2022-09-06T17:29:50.034Z,95000
2022-09-06T17:33:15.263Z,95000
2022-09-06T17:36:40.485Z,95009
2022-09-06T17:40:05.788Z,95004
2022-09-06T17:43:30.966Z,94999
2022-09-06T17:47:11.803Z,95001
2022-09-06T17:50:21.464Z,95006
2022-09-06T17:53:46.718Z,95005
2022-09-06T17:57:11.915Z,95008
2022-09-06T18:00:37.165Z,95011
2022-09-06T18:04:02.449Z,95019
2022-09-06T18:07:27.603Z,95021
2022-09-06T18:10:52.833Z,95022
2022-09-06T18:14:18.072Z,95030
2022-09-06T18:17:43.307Z,95032
2022-09-06T18:21:08.543Z,95040
2022-09-06T18:24:33.738Z,95042
2022-09-06T18:27:58.956Z,95042
2022-09-06T18:31:24.195Z,95039
2022-09-06T18:34:49.379Z,95049
2022-09-06T18:38:14.603Z,95045
2022-09-06T18:41:39.848Z,95052
2022-09-06T18:45:05.104Z,95053
2022-09-06T18:48:30.473Z,95056
2022-09-06T18:51:55.586Z,95055
2022-09-06T18:55:20.837Z,95057
2022-09-06T18:58:46.088Z,95066
2022-09-06T19:02:11.820Z,95065
2022-09-06T19:05:37.112Z,95065
2022-09-06T19:09:02.439Z,95064
2022-09-06T19:12:27.793Z,95062
2022-09-06T19:15:53.141Z,95066
2022-09-06T19:19:18.477Z,95066
2022-09-06T19:22:44.047Z,95066
2022-09-06T19:26:09.358Z,95066
2022-09-06T19:29:34.817Z,95061
2022-09-06T19:33:00.818Z,95058
2022-09-06T19:36:26.698Z,95062
2022-09-06T19:39:52.135Z,95052
2022-09-06T19:43:17.478Z,95049
2022-09-06T19:46:45.878Z,95045
2022-09-06T19:50:08.391Z,95035
2022-09-06T19:53:33.798Z,95034
2022-09-06T19:56:59.162Z,95034
2022-09-06T20:00:24.481Z,95032
2022-09-06T20:03:49.842Z,95035
2022-09-06T20:07:15.195Z,95031
2022-09-06T20:10:40.621Z,95029
2022-09-06T20:14:05.858Z,95023
2022-09-06T20:17:33.981Z,95023
2022-09-06T20:20:56.289Z,95020
2022-09-06T20:24:21.529Z,95022
2022-09-06T20:27:46.706Z,95024
2022-09-06T20:31:11.996Z,95019
2022-09-06T20:34:37.124Z,95012
2022-09-06T20:38:02.334Z,95013
2022-09-06T20:41:27.548Z,95011
2022-09-06T20:44:52.784Z,95011
2022-09-06T20:48:17.986Z,95014
2022-09-06T20:51:43.258Z,95013
2022-09-06T20:55:08.509Z,95007
2022-09-06T20:58:33.730Z,95008
2022-09-06T21:01:59.006Z,95003
2022-09-06T21:05:24.122Z,95001
2022-09-06T21:08:49.373Z,95000
2022-09-06T21:12:14.604Z,94998
2022-09-06T21:15:39.816Z,95002
2022-09-06T21:19:05.066Z,94995
2022-09-06T21:22:30.291Z,94991
2022-09-06T21:25:55.505Z,94992
2022-09-06T21:29:20.708Z,95003
2022-09-06T21:32:45.919Z,95001
2022-09-06T21:36:11.146Z,94999
2022-09-06T21:39:36.442Z,95005
2022-09-06T21:43:01.605Z,95008
2022-09-06T21:46:30.388Z,95005
2022-09-06T21:49:51.995Z,95011
2022-09-06T21:53:17.217Z,95008
2022-09-06T21:56:42.459Z,95012
2022-09-06T22:00:07.674Z,95006
2022-09-06T22:03:32.868Z,95005
2022-09-06T22:06:58.097Z,95006
2022-09-06T22:10:23.335Z,95002
2022-09-06T22:13:48.568Z,95000
2022-09-06T22:17:14.595Z,94998
2022-09-06T22:20:39.800Z,95000
2022-09-06T22:24:05.016Z,94991
2022-09-06T22:27:30.245Z,94988
2022-09-06T22:30:55.552Z,94990
2022-09-06T22:34:20.650Z,94983
2022-09-06T22:37:45.939Z,94985
2022-09-06T22:41:11.209Z,94982
2022-09-06T22:44:36.404Z,94983
2022-09-06T22:48:01.635Z,94979
2022-09-06T22:51:26.863Z,94978
2022-09-06T22:54:52.107Z,94984
2022-09-06T22:58:17.310Z,94985
2022-09-06T23:01:42.546Z,94981
2022-09-06T23:05:07.793Z,94982
2022-09-06T23:08:33.013Z,94975
2022-09-06T23:11:58.269Z,94972
2022-09-06T23:15:23.538Z,94965
2022-09-06T23:18:48.787Z,94956
2022-09-06T23:22:14.056Z,94953
2022-09-06T23:25:39.986Z,94945
2022-09-06T23:29:05.224Z,94936
2022-09-06T23:32:30.478Z,94935
2022-09-06T23:35:55.710Z,94939
2022-09-06T23:39:20.935Z,94933
2022-09-06T23:42:46.223Z,94929
2022-09-06T23:46:11.513Z,94925
2022-09-06T23:49:36.776Z,94922
2022-09-06T23:53:02.043Z,94911
2022-09-06T23:56:27.306Z,94905
2022-09-06T23:59:52.599Z,94904
